Time;durP1;ratioP1;P1;durP2;ratioP2;P2;SDS_P1;SDS_P2;PMS_P1;PMS_P2;Temp;Humidity;BMP_temperature;BMP_pressure;BME280_temperature;BME280_humidity;BME280_pressure;Samples;Min_cycle;Max_cycle;Signal;HPM_P1;HPM_P2
2022/12/24 00:00:06;;;;;;;1.33;0.80;;;;;;;12.42;100.00;96384.97;5016895;28;20217;-61
2022/12/24 00:02:32;;;;;;;0.80;0.80;;;;;;;12.41;100.00;96380.63;5014234;28;20220;-61
2022/12/24 00:04:59;;;;;;;0.83;0.57;;;;;;;12.40;100.00;96378.97;4994426;28;20208;-62
2022/12/24 00:07:25;;;;;;;0.97;0.80;;;;;;;12.39;100.00;96379.97;4995707;28;20216;-59
2022/12/24 00:09:53;;;;;;;1.23;0.40;;;;;;;12.36;100.00;96380.31;4994104;28;20837;-60
2022/12/24 00:12:20;;;;;;;0.50;0.50;;;;;;;12.35;100.00;96387.44;4995088;28;20209;-61
2022/12/24 00:14:47;;;;;;;0.40;0.40;;;;;;;12.32;100.00;96382.44;4995251;28;21316;-60
2022/12/24 00:17:13;;;;;;;0.40;0.40;;;;;;;12.31;100.00;96387.91;4995468;28;20201;-62
2022/12/24 00:19:41;;;;;;;0.40;0.40;;;;;;;12.30;100.00;96384.41;4994697;28;20212;-61
2022/12/24 00:22:08;;;;;;;0.30;0.30;;;;;;;12.25;100.00;96392.03;5003475;28;20205;-61
2022/12/24 00:24:35;;;;;;;0.30;0.30;;;;;;;12.24;100.00;96387.72;5017802;28;20205;-59
2022/12/24 00:27:04;;;;;;;0.40;0.40;;;;;;;12.21;100.00;96390.69;5017111;28;20200;-58
2022/12/24 00:29:31;;;;;;;0.67;0.40;;;;;;;12.18;100.00;96406.06;5024898;28;20294;-59
2022/12/24 00:31:57;;;;;;;3.13;0.40;;;;;;;12.20;100.00;96404.09;5007009;28;20208;-61
2022/12/24 00:34:26;;;;;;;0.37;0.37;;;;;;;12.16;100.00;96397.44;4994782;28;20204;-60
2022/12/24 00:36:53;;;;;;;1.03;0.23;;;;;;;12.15;100.00;96406.41;4996328;28;20210;-61
2022/12/24 00:39:19;;;;;;;0.30;0.30;;;;;;;12.13;100.00;96414.50;4994432;28;20544;-60
2022/12/24 00:41:45;;;;;;;0.37;0.37;;;;;;;12.14;100.00;96416.16;4994282;28;20684;-60
2022/12/24 00:44:13;;;;;;;0.20;0.20;;;;;;;12.12;100.00;96427.88;5002353;28;20245;-60
2022/12/24 00:46:41;;;;;;;0.30;0.30;;;;;;;12.09;100.00;96425.56;5010923;28;20210;-61
2022/12/24 00:49:11;;;;;;;0.40;0.40;;;;;;;12.08;100.00;96427.38;5016609;28;20200;-60
2022/12/24 00:51:37;;;;;;;0.70;0.50;;;;;;;12.09;100.00;96438.81;5011622;28;20212;-60
2022/12/24 00:54:04;;;;;;;0.50;0.33;;;;;;;12.06;100.00;96433.84;5002329;28;20220;-59
2022/12/24 00:56:31;;;;;;;0.60;0.50;;;;;;;12.07;100.00;96432.84;5003967;28;20204;-59
2022/12/24 00:58:57;;;;;;;0.60;0.47;;;;;;;12.13;100.00;96433.06;5001990;28;20656;-61
2022/12/24 01:01:25;;;;;;;0.43;0.43;;;;;;;12.09;100.00;96422.91;5004363;28;20240;-60
2022/12/24 01:05:08;;;;;;;0.60;0.40;;;;;;;12.03;100.00;96415.59;5003896;28;20213;-59
2022/12/24 01:06:37;;;;;;;0.77;0.40;;;;;;;12.03;100.00;96418.25;5003219;28;20220;-60
2022/12/24 01:09:04;;;;;;;0.43;0.43;;;;;;;11.99;100.00;96430.97;5003779;28;20636;-60
2022/12/24 01:11:30;;;;;;;0.40;0.40;;;;;;;12.01;100.00;96436.94;5003791;28;20547;-60
2022/12/24 01:13:57;;;;;;;0.50;0.50;;;;;;;11.96;100.00;96453.34;5004788;28;20213;-59
2022/12/24 01:16:28;;;;;;;1.83;0.60;;;;;;;12.06;100.00;96460.34;5003195;28;20220;-60
2022/12/24 01:18:55;;;;;;;1.33;0.60;;;;;;;12.04;100.00;96454.38;5003756;28;20637;-59
2022/12/24 01:21:21;;;;;;;0.50;0.50;;;;;;;12.00;100.00;96458.31;5002599;28;20236;-60
2022/12/24 01:23:48;;;;;;;0.90;0.67;;;;;;;11.93;100.00;96461.59;5003877;28;20208;-59
2022/12/24 01:26:15;;;;;;;0.70;0.53;;;;;;;11.93;100.00;96468.72;5001833;28;20213;-60
2022/12/24 01:28:42;;;;;;;0.70;0.70;;;;;;;11.95;100.00;96464.06;5002643;28;20200;-60
2022/12/24 01:31:12;;;;;;;1.57;0.63;;;;;;;11.93;100.00;96461.59;5002798;28;20205;-60
2022/12/24 01:33:40;;;;;;;1.87;0.70;;;;;;;11.92;100.00;96459.94;5003391;28;20263;-60
2022/12/24 01:36:07;;;;;;;0.67;0.67;;;;;;;11.91;100.00;96466.22;5002394;28;20204;-60
2022/12/24 01:38:34;;;;;;;0.50;0.50;;;;;;;11.94;100.00;96468.53;5002323;28;20219;-60
2022/12/24 01:43:44;;;;;;;1.17;0.77;;;;;;;11.91;100.00;96462.72;4973806;28;20243;-59
2022/12/24 01:46:15;;;;;;;1.07;0.70;;;;;;;11.95;100.00;96445.53;5002408;28;20339;-60
2022/12/24 01:48:45;;;;;;;0.80;0.60;;;;;;;11.95;100.00;96456.97;5003297;28;20209;-61
2022/12/24 01:51:17;;;;;;;1.53;1.23;;;;;;;11.93;100.00;96466.91;5002269;28;20880;-61
2022/12/24 01:53:46;;;;;;;0.50;0.40;;;;;;;11.92;100.00;96465.22;5003441;28;20307;-60
2022/12/24 01:56:13;;;;;;;0.63;0.63;;;;;;;11.88;100.00;96453.28;5002711;28;20212;-61
2022/12/24 01:58:43;;;;;;;0.83;0.60;;;;;;;11.91;100.00;96465.38;5002716;28;20200;-60
2022/12/24 02:01:10;;;;;;;0.80;0.80;;;;;;;11.87;100.00;96478.09;5002305;28;20247;-61
2022/12/24 02:03:36;;;;;;;1.67;0.80;;;;;;;11.90;100.00;96492.88;5002498;28;20218;-59
2022/12/24 02:06:05;;;;;;;0.57;0.57;;;;;;;11.91;100.00;96500.66;5001715;28;20293;-61
2022/12/24 02:08:39;;;;;;;0.60;0.60;;;;;;;11.89;100.00;96507.94;5002323;28;20201;-60
2022/12/24 02:11:10;;;;;;;0.77;0.70;;;;;;;11.90;100.00;96503.47;5001697;28;20286;-60
2022/12/24 02:13:37;;;;;;;0.77;0.40;;;;;;;11.89;100.00;96505.28;5001528;28;20649;-62
2022/12/24 02:16:10;;;;;;;1.43;0.77;;;;;;;11.85;100.00;96506.59;5003222;28;20296;-60
2022/12/24 02:18:46;;;;;;;1.77;0.90;;;;;;;11.86;100.00;96492.34;5002516;28;20201;-60
2022/12/24 02:21:27;;;;;;;1.33;0.70;;;;;;;11.84;100.00;96493.47;5002750;28;20222;-60
2022/12/24 02:24:13;;;;;;;1.00;0.80;;;;;;;11.90;100.00;96503.47;5007806;28;20200;-60
2022/12/24 02:27:00;;;;;;;0.80;0.80;;;;;;;11.94;100.00;96504.81;5014640;28;20208;-60
2022/12/24 02:29:58;;;;;;;0.87;0.37;;;;;;;11.90;100.00;96517.53;5009227;28;20243;-60
2022/12/24 02:32:30;;;;;;;0.50;0.50;;;;;;;11.91;100.00;96526.31;5005630;28;20209;-60
2022/12/24 02:35:01;;;;;;;0.63;0.63;;;;;;;11.89;100.00;96531.78;5004139;28;20205;-61
2022/12/24 02:37:31;;;;;;;1.77;0.60;;;;;;;11.86;100.00;96532.09;5002508;28;20647;-62
2022/12/24 02:40:03;;;;;;;1.80;0.73;;;;;;;11.86;100.00;96534.75;5001086;28;20224;-61
2022/12/24 02:42:35;;;;;;;0.30;0.30;;;;;;;11.84;100.00;96536.69;5001157;28;20310;-61
2022/12/24 02:45:03;;;;;;;1.93;0.40;;;;;;;11.86;100.00;96548.00;5002062;28;20236;-61
2022/12/24 02:47:32;;;;;;;0.73;0.70;;;;;;;11.87;100.00;96539.03;5002090;28;20220;-61
2022/12/24 02:50:00;;;;;;;1.10;0.67;;;;;;;11.83;100.00;96544.81;5004576;28;20224;-60
2022/12/24 02:52:32;;;;;;;1.07;0.67;;;;;;;11.87;100.00;96543.50;5005879;28;20208;-61
2022/12/24 02:55:02;;;;;;;2.17;1.10;;;;;;;11.85;100.00;96543.69;5004661;28;20205;-61
2022/12/24 02:57:38;;;;;;;1.30;0.50;;;;;;;11.86;100.00;96544.50;5005647;28;21445;-60
2022/12/24 03:00:06;;;;;;;0.73;0.47;;;;;;;11.85;100.00;96543.69;5005086;28;20214;-60
2022/12/24 03:02:45;;;;;;;0.73;0.50;;;;;;;11.85;100.00;96533.06;5005655;28;20229;-60
2022/12/24 03:05:19;;;;;;;0.83;0.47;;;;;;;11.87;100.00;96549.63;5005955;28;20200;-61
2022/12/24 03:07:53;;;;;;;0.97;0.37;;;;;;;11.88;100.00;96548.66;5005556;28;20639;-61
2022/12/24 03:10:22;;;;;;;1.67;0.50;;;;;;;11.87;100.00;96548.81;5004591;28;20216;-61
2022/12/24 03:12:52;;;;;;;0.40;0.40;;;;;;;11.84;100.00;96546.47;5005166;28;20209;-61
2022/12/24 03:15:20;;;;;;;0.70;0.60;;;;;;;11.86;100.00;96540.06;5007752;28;20543;-60
2022/12/24 03:17:50;;;;;;;1.10;0.57;;;;;;;11.81;100.00;96533.53;5022574;28;20213;-64
2022/12/24 03:20:20;;;;;;;0.20;0.20;;;;;;;11.78;100.00;96547.91;5022733;28;20208;-61
2022/12/24 03:22:47;;;;;;;0.40;0.40;;;;;;;11.75;100.00;96542.94;5019769;28;20224;-59
2022/12/24 03:25:13;;;;;;;0.30;0.30;;;;;;;11.79;100.00;96543.47;5008469;28;20208;-60
2022/12/24 03:27:40;;;;;;;0.63;0.40;;;;;;;11.73;100.00;96538.75;5009210;28;20206;-61
2022/12/24 03:30:10;;;;;;;0.33;0.30;;;;;;;11.70;100.00;96534.56;5008092;28;20205;-60
2022/12/24 03:32:36;;;;;;;0.40;0.40;;;;;;;11.68;100.00;96536.56;5009222;28;20204;-61
2022/12/24 03:35:05;;;;;;;0.50;0.50;;;;;;;11.65;100.00;96542.16;5007506;28;20212;-61
2022/12/24 03:37:32;;;;;;;1.03;0.43;;;;;;;11.60;100.00;96541.75;5008254;28;20308;-61
2022/12/24 03:39:58;;;;;;;0.30;0.23;;;;;;;11.58;100.00;96546.41;5003619;28;20219;-60
2022/12/24 03:42:25;;;;;;;0.87;0.40;;;;;;;11.50;100.00;96548.97;5004815;28;20664;-60
2022/12/24 03:44:51;;;;;;;0.70;0.50;;;;;;;11.48;100.00;96548.25;4995906;28;20700;-60
2022/12/24 03:47:18;;;;;;;0.60;0.57;;;;;;;11.44;100.00;96560.16;4994611;28;21363;-60
2022/12/24 03:49:44;;;;;;;0.40;0.40;;;;;;;11.40;100.00;96551.69;4995508;28;20642;-60
2022/12/24 03:52:12;;;;;;;0.87;0.70;;;;;;;11.39;100.00;96542.06;4996320;28;20553;-60
2022/12/24 03:54:38;;;;;;;0.50;0.30;;;;;;;11.42;100.00;96543.56;4994815;28;20216;-60
2022/12/24 03:57:05;;;;;;;0.47;0.47;;;;;;;11.39;100.00;96555.31;4994788;28;20202;-58
2022/12/24 03:59:31;;;;;;;1.23;0.70;;;;;;;11.43;100.00;96551.38;4995765;28;20637;-59
2022/12/24 04:01:58;;;;;;;0.67;0.60;;;;;;;11.43;100.00;96563.78;5000659;28;20229;-59
2022/12/24 04:04:25;;;;;;;0.40;0.40;;;;;;;11.43;100.00;96574.38;5002441;28;20204;-59
2022/12/24 04:06:51;;;;;;;0.50;0.50;;;;;;;11.41;100.00;96577.16;4993530;28;20541;-59
2022/12/24 04:09:19;;;;;;;0.40;0.40;;;;;;;11.41;100.00;96574.50;4991362;28;20201;-59
2022/12/24 04:11:45;;;;;;;1.50;0.70;;;;;;;11.37;100.00;96570.50;4991979;28;20212;-59
2022/12/24 04:14:12;;;;;;;0.50;0.50;;;;;;;11.40;100.00;96569.38;4992190;28;20201;-62
2022/12/24 04:16:41;;;;;;;0.60;0.50;;;;;;;11.38;100.00;96552.78;4991291;28;20236;-60
2022/12/24 04:19:08;;;;;;;0.47;0.43;;;;;;;11.37;100.00;96556.44;4991650;28;20227;-60
2022/12/24 04:21:34;;;;;;;1.33;0.63;;;;;;;11.38;100.00;96558.09;4991286;28;20235;-61
2022/12/24 04:24:01;;;;;;;0.40;0.40;;;;;;;11.36;100.00;96579.44;4991730;28;20205;-60
2022/12/24 04:26:29;;;;;;;0.60;0.60;;;;;;;11.37;100.00;96580.28;4991301;28;20224;-62
2022/12/24 04:28:55;;;;;;;0.60;0.60;;;;;;;11.38;100.00;96581.91;4991035;28;20304;-60
2022/12/24 04:31:22;;;;;;;0.77;0.50;;;;;;;11.34;100.00;96564.66;4991411;28;20719;-62
2022/12/24 04:33:50;;;;;;;0.40;0.40;;;;;;;11.36;100.00;96566.19;4991328;28;20205;-60
2022/12/24 04:36:19;;;;;;;0.67;0.47;;;;;;;11.29;100.00;96577.53;4991216;28;20220;-61
2022/12/24 04:38:46;;;;;;;0.53;0.53;;;;;;;11.25;100.00;96597.34;4991385;28;20524;-60
2022/12/24 04:41:15;;;;;;;1.20;0.60;;;;;;;11.20;100.00;96583.69;4991125;28;20228;-61
2022/12/24 04:43:43;;;;;;;1.03;0.63;;;;;;;11.17;100.00;96584.84;4989042;28;20328;-62
2022/12/24 04:46:13;;;;;;;0.93;0.50;;;;;;;11.14;100.00;96586.94;4990785;28;20205;-61
2022/12/24 04:48:49;;;;;;;1.00;0.50;;;;;;;11.17;100.00;96586.66;4989955;28;20637;-62
2022/12/24 04:51:16;;;;;;;1.77;1.10;;;;;;;11.25;100.00;96576.16;4990132;28;20533;-61
2022/12/24 04:53:45;;;;;;;0.53;0.53;;;;;;;11.24;100.00;96588.56;4990664;28;20209;-61
2022/12/24 04:56:13;;;;;;;1.87;0.53;;;;;;;11.21;100.00;96583.56;4990002;28;20762;-60
2022/12/24 04:58:40;;;;;;;0.60;0.60;;;;;;;11.23;100.00;96575.50;4989981;28;20205;-60
2022/12/24 05:01:12;;;;;;;1.10;0.70;;;;;;;11.16;100.00;96577.06;4989872;28;20204;-60
2022/12/24 05:03:38;;;;;;;0.70;0.60;;;;;;;11.18;100.00;96593.63;4989732;28;20201;-60
2022/12/24 05:06:07;;;;;;;2.17;0.83;;;;;;;11.15;100.00;96581.53;4989146;28;20201;-60
2022/12/24 05:08:33;;;;;;;1.50;0.80;;;;;;;11.15;100.00;96597.41;4990697;28;20209;-60
2022/12/24 05:11:01;;;;;;;1.83;0.83;;;;;;;11.20;100.00;96604.88;4990072;28;20212;-60
2022/12/24 05:13:27;;;;;;;1.40;0.83;;;;;;;11.23;100.00;96605.41;4990186;28;20212;-61
2022/12/24 05:15:54;;;;;;;3.30;0.80;;;;;;;11.32;99.44;96611.66;4990322;28;20205;-60
2022/12/24 05:18:22;;;;;;;1.20;1.03;;;;;;;11.23;100.00;96615.19;4992048;28;20205;-60
2022/12/24 05:20:49;;;;;;;1.40;0.80;;;;;;;11.21;100.00;96619.78;4992438;28;20213;-60
2022/12/24 05:28:45;;;;;;;1.23;0.70;;;;;;;11.11;100.00;96611.06;4993826;28;20227;-59
2022/12/24 05:31:12;;;;;;;2.90;1.57;;;;;;;11.09;99.28;96620.97;4994372;28;20208;-59
2022/12/24 05:33:39;;;;;;;0.90;0.80;;;;;;;11.08;98.58;96627.25;4992440;28;20242;-61
2022/12/24 05:36:07;;;;;;;1.50;0.83;;;;;;;11.03;100.00;96622.38;4989838;28;20209;-61
2022/12/24 05:38:33;;;;;;;0.97;0.63;;;;;;;11.04;99.74;96625.88;4989955;28;20216;-61
2022/12/24 05:41:00;;;;;;;1.07;0.97;;;;;;;11.03;100.00;96625.03;4989246;28;20201;-60
2022/12/24 05:43:27;;;;;;;0.80;0.53;;;;;;;10.98;99.38;96620.16;4990187;28;20237;-60
2022/12/24 05:45:58;;;;;;;1.33;0.70;;;;;;;11.00;97.64;96625.31;4994345;28;20652;-59
2022/12/24 05:48:24;;;;;;;2.07;0.80;;;;;;;10.98;94.84;96622.00;5004499;28;20205;-60
2022/12/24 05:50:52;;;;;;;1.37;0.60;;;;;;;10.90;96.81;96628.00;5003958;28;20213;-60
2022/12/24 05:53:19;;;;;;;1.33;0.70;;;;;;;10.87;99.37;96644.19;5003953;28;20201;-60
2022/12/24 05:55:45;;;;;;;1.50;0.53;;;;;;;10.83;99.96;96634.03;4993908;28;20664;-60
2022/12/24 05:58:12;;;;;;;0.87;0.80;;;;;;;10.82;98.94;96643.78;4992470;28;20630;-60
2022/12/24 06:00:39;;;;;;;3.07;0.80;;;;;;;10.77;99.62;96650.47;5000100;28;20197;-59
2022/12/24 06:03:05;;;;;;;1.10;0.70;;;;;;;10.69;100.00;96643.25;5017070;28;20217;-59
2022/12/24 06:05:34;;;;;;;2.00;0.80;;;;;;;10.68;100.00;96656.63;5015610;28;20189;-59
2022/12/24 06:08:02;;;;;;;1.53;0.80;;;;;;;10.60;100.00;96662.63;5009670;28;20625;-58
2022/12/24 06:10:28;;;;;;;1.03;0.73;;;;;;;10.59;100.00;96657.50;4992082;28;20215;-60
2022/12/24 06:12:55;;;;;;;0.57;0.53;;;;;;;10.55;100.00;96662.22;4992222;28;20216;-59
2022/12/24 06:15:22;;;;;;;1.97;0.73;;;;;;;10.50;100.00;96653.88;4992566;28;20201;-57
2022/12/24 06:17:48;;;;;;;1.03;0.70;;;;;;;10.46;100.00;96657.78;4993072;28;20206;-59
2022/12/24 06:20:15;;;;;;;1.03;0.70;;;;;;;10.45;100.00;96669.34;4992577;28;20210;-60
2022/12/24 06:22:41;;;;;;;3.53;1.03;;;;;;;10.40;100.00;96659.19;4991467;28;20221;-59
2022/12/24 06:25:10;;;;;;;2.10;0.80;;;;;;;10.38;100.00;96670.88;4994779;28;20208;-59
2022/12/24 06:27:36;;;;;;;1.13;0.80;;;;;;;10.32;100.00;96682.84;4996310;28;20216;-59
2022/12/24 06:30:03;;;;;;;3.07;0.97;;;;;;;10.32;100.00;96692.56;5019061;28;20220;-59
2022/12/24 06:32:30;;;;;;;1.93;0.97;;;;;;;10.26;100.00;96695.78;5018997;28;20202;-57
2022/12/24 06:34:56;;;;;;;1.40;0.63;;;;;;;10.22;100.00;96697.03;5020643;28;20174;-58
2022/12/24 06:37:22;;;;;;;1.17;0.83;;;;;;;10.18;100.00;96698.28;5019899;28;20204;-59
2022/12/24 06:39:49;;;;;;;0.77;0.77;;;;;;;10.19;100.00;96707.88;4996133;28;20213;-59
2022/12/24 06:42:17;;;;;;;2.03;0.67;;;;;;;10.14;100.00;96699.50;4995692;28;20237;-59
2022/12/24 06:44:43;;;;;;;0.93;0.90;;;;;;;10.14;100.00;96694.22;5003222;28;20248;-59
2022/12/24 06:47:10;;;;;;;1.13;0.73;;;;;;;10.11;100.00;96699.78;5004642;28;20223;-59
2022/12/24 06:49:36;;;;;;;1.63;0.83;;;;;;;10.14;100.00;96704.78;5004458;28;20208;-59
2022/12/24 06:52:03;;;;;;;1.30;0.80;;;;;;;10.11;100.00;96705.06;5005255;28;20535;-60
2022/12/24 06:54:29;;;;;;;2.43;1.10;;;;;;;10.16;100.00;96687.88;5005562;28;20528;-60
2022/12/24 06:56:56;;;;;;;2.53;0.80;;;;;;;10.20;100.00;96691.06;5004726;28;20216;-59
2022/12/24 06:59:23;;;;;;;0.63;0.63;;;;;;;10.13;100.00;96693.38;5003912;28;20212;-59
2022/12/24 07:01:50;;;;;;;1.00;0.80;;;;;;;10.15;100.00;96709.97;5004543;28;20209;-59
2022/12/24 07:04:17;;;;;;;1.43;0.97;;;;;;;10.19;100.00;96716.66;5005498;28;20209;-60
2022/12/24 07:06:44;;;;;;;2.77;0.90;;;;;;;10.13;100.00;96719.00;5004912;28;20208;-60
2022/12/24 07:09:11;;;;;;;1.33;0.80;;;;;;;10.04;100.00;96717.16;5004416;28;20825;-59
2022/12/24 07:11:39;;;;;;;1.47;0.90;;;;;;;10.04;100.00;96715.34;5004866;28;20224;-59
2022/12/24 07:14:06;;;;;;;1.40;1.07;;;;;;;10.00;100.00;96701.59;5005453;28;20220;-60
2022/12/24 07:16:34;;;;;;;2.37;1.00;;;;;;;9.99;100.00;96713.13;5004664;28;20217;-60
2022/12/24 07:19:00;;;;;;;1.63;1.00;;;;;;;9.97;100.00;96716.88;5004659;28;20216;-60
2022/12/24 07:21:27;;;;;;;2.50;1.00;;;;;;;9.94;100.00;96731.22;5004393;28;20232;-59
2022/12/24 07:23:53;;;;;;;3.70;1.20;;;;;;;9.94;100.00;96731.22;5003071;28;20676;-59
2022/12/24 07:26:20;;;;;;;2.13;0.97;;;;;;;9.94;100.00;96739.13;5004129;28;20224;-60
2022/12/24 07:28:47;;;;;;;0.93;0.80;;;;;;;9.94;100.00;96735.66;5005046;28;20510;-59
2022/12/24 07:31:13;;;;;;;2.00;0.87;;;;;;;9.91;100.00;96739.41;5005711;28;20224;-59
2022/12/24 07:33:41;;;;;;;0.87;0.77;;;;;;;9.94;100.00;96741.78;5004473;28;20212;-60
2022/12/24 07:36:11;;;;;;;0.97;0.70;;;;;;;9.89;100.00;96741.34;5005140;28;20228;-58
2022/12/24 07:38:38;;;;;;;3.40;1.10;;;;;;;9.86;100.00;96749.53;5004644;28;20212;-60
2022/12/24 07:41:04;;;;;;;2.67;1.07;;;;;;;9.87;100.00;96740.66;5004648;28;20648;-58
2022/12/24 07:43:32;;;;;;;1.40;1.00;;;;;;;9.83;100.00;96744.53;5004657;28;20265;-59
2022/12/24 07:46:00;;;;;;;1.13;0.50;;;;;;;9.84;100.00;96742.72;5003998;28;20213;-60
2022/12/24 07:48:27;;;;;;;2.07;1.00;;;;;;;9.86;100.00;96754.81;5004414;28;20209;-60
2022/12/24 07:50:55;;;;;;;1.43;0.80;;;;;;;9.81;100.00;96761.50;5004960;28;20196;-58
2022/12/24 07:53:22;;;;;;;1.40;0.60;;;;;;;9.78;100.00;96754.66;5003448;28;20216;-59
2022/12/24 07:55:49;;;;;;;1.40;0.90;;;;;;;9.78;100.00;96749.38;5003818;28;20204;-59
2022/12/24 07:58:15;;;;;;;0.87;0.77;;;;;;;9.78;100.00;96752.00;5004164;28;20205;-59
2022/12/24 08:00:43;;;;;;;1.73;0.97;;;;;;;9.78;100.00;96762.56;5004986;28;20224;-58
2022/12/24 08:03:16;;;;;;;2.47;0.90;;;;;;;9.78;100.00;96752.00;5004174;28;20216;-59
2022/12/24 08:05:42;;;;;;;0.93;0.87;;;;;;;9.77;100.00;96758.28;5003750;28;20217;-59
2022/12/24 08:08:10;;;;;;;1.73;1.20;;;;;;;9.81;100.00;96749.09;5003668;28;20645;-59
2022/12/24 08:10:38;;;;;;;2.67;1.10;;;;;;;9.81;100.00;96764.94;5003908;28;20209;-59
2022/12/24 08:13:05;;;;;;;1.00;0.60;;;;;;;9.80;100.00;96770.38;5008905;28;20189;-59
2022/12/24 08:15:31;;;;;;;0.50;0.50;;;;;;;9.80;100.00;96773.84;5022187;28;20212;-59
2022/12/24 08:17:58;;;;;;;1.50;0.80;;;;;;;9.78;100.00;96772.28;5022514;28;20210;-59
2022/12/24 08:20:25;;;;;;;1.57;0.90;;;;;;;9.72;100.00;96784.25;5017456;28;20219;-59
2022/12/24 08:22:52;;;;;;;2.23;1.00;;;;;;;9.80;100.00;96788.88;5004093;28;20228;-59
2022/12/24 08:25:20;;;;;;;0.50;0.50;;;;;;;9.75;100.00;96778.69;5003752;28;20525;-59
2022/12/24 08:27:47;;;;;;;1.70;0.63;;;;;;;9.75;100.00;96783.97;5008483;28;20276;-59
2022/12/24 08:30:14;;;;;;;1.53;0.50;;;;;;;9.76;100.00;96767.16;5005464;28;20552;-59
2022/12/24 08:32:43;;;;;;;0.87;0.63;;;;;;;9.77;100.00;96760.09;5003979;28;20239;-59
2022/12/24 08:35:09;;;;;;;2.40;0.80;;;;;;;9.72;100.00;96752.56;5004951;28;20320;-60
2022/12/24 08:37:36;;;;;;;0.67;0.60;;;;;;;9.70;100.00;96757.16;5003754;28;20208;-60
2022/12/24 08:40:03;;;;;;;0.70;0.70;;;;;;;9.67;100.00;96770.59;5002766;28;20212;-60
2022/12/24 08:42:30;;;;;;;0.77;0.50;;;;;;;9.72;100.00;96783.41;5004192;28;20600;-60
2022/12/24 08:44:57;;;;;;;0.87;0.67;;;;;;;9.70;100.00;96782.72;4994423;28;20251;-60
2022/12/24 08:47:23;;;;;;;0.90;0.50;;;;;;;9.71;100.00;96782.56;4992965;28;20209;-59
2022/12/24 08:49:50;;;;;;;1.37;0.90;;;;;;;9.71;100.00;96781.72;4992084;28;20964;-59
2022/12/24 08:52:17;;;;;;;0.60;0.50;;;;;;;9.72;100.00;96778.97;4994399;28;20213;-59
2022/12/24 08:54:45;;;;;;;0.77;0.70;;;;;;;9.73;100.00;96790.38;4994323;28;20629;-59
2022/12/24 08:57:13;;;;;;;1.37;0.40;;;;;;;9.73;100.00;96785.94;4996614;28;20271;-59
2022/12/24 08:59:41;;;;;;;1.47;0.60;;;;;;;9.80;100.00;96794.97;5000066;28;20620;-59
2022/12/24 09:02:08;;;;;;;0.90;0.70;;;;;;;9.79;100.00;96811.78;4999653;28;20200;-59
2022/12/24 09:04:38;;;;;;;1.03;1.03;;;;;;;9.79;100.00;96821.50;5008984;28;20233;-59
2022/12/24 09:07:04;;;;;;;1.73;0.70;;;;;;;9.82;100.00;96826.53;5007216;28;20224;-59
2022/12/24 09:09:31;;;;;;;0.77;0.57;;;;;;;9.84;100.00;96814.88;5003357;28;20215;-60
2022/12/24 09:11:57;;;;;;;1.07;0.63;;;;;;;9.83;100.00;96810.56;5007039;28;20205;-60
2022/12/24 09:14:26;;;;;;;0.40;0.40;;;;;;;10.00;100.00;96812.53;4993973;28;20221;-58
2022/12/24 09:16:54;;;;;;;1.13;0.60;;;;;;;9.87;100.00;96811.13;4993313;28;20208;-60
2022/12/24 09:19:20;;;;;;;0.83;0.63;;;;;;;9.92;100.00;96807.09;4993449;28;20224;-59
2022/12/24 09:21:47;;;;;;;1.80;0.50;;;;;;;9.91;100.00;96810.72;4992794;28;20213;-60
2022/12/24 09:24:14;;;;;;;0.63;0.60;;;;;;;9.87;100.00;96813.75;4992323;28;20232;-59
2022/12/24 09:26:41;;;;;;;0.57;0.57;;;;;;;9.90;100.00;96816.97;4993938;28;20216;-60
2022/12/24 09:29:08;;;;;;;0.30;0.30;;;;;;;9.91;100.00;96818.66;4992761;28;20217;-60
2022/12/24 09:31:34;;;;;;;0.47;0.43;;;;;;;9.93;100.00;96823.78;4993016;28;20205;-60
2022/12/24 09:34:02;;;;;;;1.13;0.60;;;;;;;9.88;100.00;96820.72;4992341;28;20205;-59
2022/12/24 09:36:29;;;;;;;0.90;0.60;;;;;;;9.91;100.00;96829.22;4993503;28;20201;-59
2022/12/24 09:38:56;;;;;;;0.57;0.43;;;;;;;9.96;100.00;96824.34;4994814;28;20212;-60
2022/12/24 09:41:33;;;;;;;0.57;0.47;;;;;;;9.92;100.00;96822.09;4992641;28;20205;-59
2022/12/24 09:44:01;;;;;;;0.70;0.57;;;;;;;9.94;100.00;96836.88;4980170;28;20229;-60
2022/12/24 09:46:32;;;;;;;0.93;0.40;;;;;;;9.89;100.00;96827.66;4968871;28;20214;-59
2022/12/24 09:49:04;;;;;;;0.80;0.57;;;;;;;9.89;100.00;96820.56;4969098;28;20209;-59
2022/12/24 09:51:34;;;;;;;2.20;1.07;;;;;;;9.91;100.00;96826.56;4972718;28;20209;-59
2022/12/24 09:54:04;;;;;;;2.13;1.90;;;;;;;9.88;100.00;96829.47;4975965;28;20208;-59
2022/12/24 09:56:33;;;;;;;2.03;1.93;;;;;;;9.87;100.00;96837.53;4967166;28;20205;-59
2022/12/24 09:59:01;;;;;;;0.70;0.70;;;;;;;9.85;100.00;96835.00;4971411;28;20225;-60
2022/12/24 10:01:30;;;;;;;0.73;0.70;;;;;;;9.84;100.00;96841.28;4973235;28;20538;-59
2022/12/24 10:03:57;;;;;;;1.87;0.50;;;;;;;9.85;100.00;96834.19;4972015;28;20240;-60
2022/12/24 10:06:30;;;;;;;1.27;0.47;;;;;;;9.83;100.00;96844.06;4972198;28;20224;-60
2022/12/24 10:09:03;;;;;;;1.27;0.43;;;;;;;9.86;100.00;96836.69;4972619;28;20209;-59
2022/12/24 10:11:37;;;;;;;1.20;0.50;;;;;;;9.85;100.00;96840.31;4973064;28;20198;-60
2022/12/24 10:14:13;;;;;;;0.50;0.30;;;;;;;9.87;100.00;96835.75;4971575;28;20673;-59
2022/12/24 10:16:48;;;;;;;0.83;0.53;;;;;;;9.85;100.00;96837.66;4972306;28;20198;-59
2022/12/24 10:19:17;;;;;;;1.43;0.73;;;;;;;9.87;100.00;96841.03;4972701;28;20198;-59
2022/12/24 10:21:54;;;;;;;0.83;0.50;;;;;;;9.89;100.00;96823.22;4972461;28;20224;-59
2022/12/24 10:24:23;;;;;;;0.53;0.30;;;;;;;9.97;100.00;96819.91;4971653;28;20221;-60
2022/12/24 10:26:53;;;;;;;1.47;0.30;;;;;;;10.06;100.00;96826.19;4971617;28;20212;-59
2022/12/24 10:29:23;;;;;;;0.63;0.40;;;;;;;10.07;100.00;96825.22;4971700;28;20512;-58
2022/12/24 10:31:55;;;;;;;2.90;0.70;;;;;;;10.07;100.00;96820.75;4972498;28;20210;-59
2022/12/24 10:34:23;;;;;;;1.63;0.80;;;;;;;10.14;100.00;96837.78;4971735;28;20301;-59
2022/12/24 10:36:51;;;;;;;0.97;0.80;;;;;;;10.15;100.00;96838.63;4972767;28;20221;-59
2022/12/24 10:39:19;;;;;;;0.73;0.67;;;;;;;10.13;100.00;96848.47;4971898;28;20210;-59
2022/12/24 10:41:46;;;;;;;1.90;0.87;;;;;;;10.17;100.00;96848.06;4972931;28;20655;-60
2022/12/24 10:44:16;;;;;;;2.23;0.90;;;;;;;10.19;100.00;96850.59;5011403;28;20215;-58
2022/12/24 10:46:44;;;;;;;1.20;0.83;;;;;;;10.18;100.00;96856.84;5027264;28;20176;-59
2022/12/24 10:49:14;;;;;;;1.63;1.13;;;;;;;10.20;100.00;96847.00;5022652;28;20205;-59
2022/12/24 10:51:45;;;;;;;1.03;0.60;;;;;;;10.20;100.00;96842.50;5007505;28;20213;-58
2022/12/24 10:54:15;;;;;;;1.67;1.20;;;;;;;10.20;100.00;96826.66;5005027;28;20196;-58
2022/12/24 10:56:43;;;;;;;0.60;0.57;;;;;;;10.27;100.00;96829.63;5005482;28;20194;-57
2022/12/24 10:59:24;;;;;;;0.60;0.60;;;;;;;10.35;100.00;96819.16;5005894;28;20552;-58
2022/12/24 11:01:51;;;;;;;0.80;0.80;;;;;;;10.31;100.00;96818.59;5004684;28;20228;-60
2022/12/24 11:04:20;;;;;;;0.90;0.90;;;;;;;10.29;100.00;96811.78;5004912;28;20237;-60
2022/12/24 11:06:55;;;;;;;2.73;0.93;;;;;;;10.32;100.00;96809.72;4986197;28;20196;-59
2022/12/24 11:09:25;;;;;;;1.67;0.60;;;;;;;10.32;100.00;96806.22;4986144;28;20644;-59
2022/12/24 11:11:55;;;;;;;0.73;0.73;;;;;;;10.34;100.00;96805.16;5004161;28;20212;-59
2022/12/24 11:14:22;;;;;;;0.50;0.50;;;;;;;10.44;100.00;96802.50;5003894;28;20209;-60
2022/12/24 11:16:53;;;;;;;0.33;0.33;;;;;;;10.42;100.00;96812.38;5003483;28;20200;-59
2022/12/24 11:19:25;;;;;;;1.53;0.67;;;;;;;10.46;100.00;96816.41;5004493;28;20217;-59
2022/12/24 11:21:58;;;;;;;0.80;0.30;;;;;;;10.46;100.00;96811.97;5003677;28;20200;-59
2022/12/24 11:24:29;;;;;;;1.90;0.70;;;;;;;10.47;100.00;96818.09;5003675;28;20213;-60
2022/12/24 11:27:26;;;;;;;0.67;0.53;;;;;;;10.49;100.00;96816.13;5004148;28;20209;-60
2022/12/24 11:29:53;;;;;;;0.70;0.40;;;;;;;10.54;100.00;96805.13;5004767;28;20556;-58
2022/12/24 11:32:21;;;;;;;1.57;0.40;;;;;;;10.54;100.00;96790.13;5005392;28;20212;-58
2022/12/24 11:34:49;;;;;;;0.40;0.40;;;;;;;10.62;100.00;96792.06;5005481;28;20221;-60
2022/12/24 11:37:19;;;;;;;1.20;0.50;;;;;;;10.69;100.00;96804.59;5005133;28;20208;-58
2022/12/24 11:39:49;;;;;;;0.67;0.43;;;;;;;10.70;100.00;96805.44;5004619;28;20208;-59